ADDS TAF Data INFO
IDs: Format: Raw Decoded Include METARs

Data at: 2016 UTC 22 Apr 2018

KFLG 221957Z VRB03KT 10SM CLR 18/M09 A3017 RMK AO2 SLP157 T01831089

KFLG 221728Z 2218/2318 VRB05KT P6SM SCT200
  FM221900 19008G15KT P6SM FEW110 SCT200
  FM230100 VRB05KT P6SM SCT100 BKN200